Ellsworth Air Force Base
KRCA : now visible

Airfield :











YOU CAN JOIN US ON...

 
LOGIN :

Register | Disclaimer

   EN    FR    IT 

 









Legend :    VFR   Marginal VFR   IFR   Intensive IFR   Very Intensive IFR
Visi :
Ceiling :
>= 8 km
>= 3000ft
5 to 8 km
1000 to 3000 ft
1500m to 5 km
500 to 1000 ft
800 to 1500m
200 to 500 ft
< 800m
< 200 ft
Symbols :   Thunderstorms  Fog  Heavy snow  Heavy precipitations  Wind > 20 kt






- Airport Elevation : 3276 ft


KRCA - Ellsworth Air Force Base

CURRENT METAR :
  • 241456Z AUTO 35006KT 10SM SCT095 15/02 A3019 RMK AO2 SLP215 T01470019 52008 $

EXPIRED METARs :
  • 241356Z AUTO 33007KT 10SM FEW095 BKN230 13/03 A3019 RMK AO2 SLP217 T01280029 $
  • 241256Z AUTO 32009KT 10SM SCT060 09/04 A3018 RMK AO2 SLP215 T00900036 $

TAF AMD TAF KRCA
Valid from the 24 at 13:00 until the 25 at 17:00 UTC


241320Z 2413/2517 33012KT 9999 SCT100 QNH3013INS
BECMG 2417/2418 34010G15KT 9999 FEW100 QNH3015INS
TEMPO 2421/2424 34015G25KT
BECMG 2500/2501 VRB06KT 9999 FEW100 QNH3013INS
BECMG 2505/2506 VRB06KT 9999 SKC QNH3004INS TX20/2421Z TN10/2510Z
KZDV FIR / North America



MET'MAP, your aeronautical weather chart ! - Copyright ORBIFLY December 2007 - Disclaimer

ORBIFLY MET'MAP TEAM :

Programming & Development : Alexandra Zaïnal
Concept & original design : Baudouin d'Aumeries
Assistance for programming : Marc-Olivier Méhu
Technical & hardware support : Manuel Goepfert

Contact : metmap@orbifly.com




SOURCES & CREDITS :

   NOAA       Earth
Advisory